sensor_id;sensor_type;location;lat;lon;timestamp;pressure;altitude;pressure_sealevel;temperature;humidity
71966;BME280;59836;52.132;5.442;2023-03-15T00:01:18;101211.44;;;2.93;86.59
71966;BME280;59836;52.132;5.442;2023-03-15T00:03:46;101207.34;;;2.91;86.77
71966;BME280;59836;52.132;5.442;2023-03-15T00:06:13;101225.47;;;2.89;87.09
71966;BME280;59836;52.132;5.442;2023-03-15T00:08:39;101223.81;;;2.88;87.16
71966;BME280;59836;52.132;5.442;2023-03-15T00:11:06;101221.34;;;2.86;87.14
71966;BME280;59836;52.132;5.442;2023-03-15T00:13:33;101222.78;;;2.82;86.70
71966;BME280;59836;52.132;5.442;2023-03-15T00:16:00;101223.22;;;2.79;86.91
71966;BME280;59836;52.132;5.442;2023-03-15T00:18:28;101218.25;;;2.76;86.74
71966;BME280;59836;52.132;5.442;2023-03-15T00:20:55;101219.72;;;2.72;86.81
71966;BME280;59836;52.132;5.442;2023-03-15T00:23:21;101220.13;;;2.69;87.24
71966;BME280;59836;52.132;5.442;2023-03-15T00:25:49;101224.06;;;2.66;86.99
71966;BME280;59836;52.132;5.442;2023-03-15T00:28:16;101226.97;;;2.64;87.23
71966;BME280;59836;52.132;5.442;2023-03-15T00:30:44;101233.53;;;2.62;86.92
71966;BME280;59836;52.132;5.442;2023-03-15T00:33:12;101228.19;;;2.55;87.31
71966;BME280;59836;52.132;5.442;2023-03-15T00:35:41;101235.41;;;2.48;87.23
71966;BME280;59836;52.132;5.442;2023-03-15T00:38:09;101230.47;;;2.45;87.15
71966;BME280;59836;52.132;5.442;2023-03-15T00:40:36;101232.69;;;2.41;87.53
71966;BME280;59836;52.132;5.442;2023-03-15T00:43:03;101230.03;;;2.41;87.74
71966;BME280;59836;52.132;5.442;2023-03-15T00:45:29;101232.91;;;2.46;87.98
71966;BME280;59836;52.132;5.442;2023-03-15T00:47:56;101235.41;;;2.48;88.18
71966;BME280;59836;52.132;5.442;2023-03-15T00:50:22;101230.84;;;2.48;87.65
71966;BME280;59836;52.132;5.442;2023-03-15T00:52:49;101244.44;;;2.40;87.60
71966;BME280;59836;52.132;5.442;2023-03-15T00:55:17;101246.31;;;2.40;88.21
71966;BME280;59836;52.132;5.442;2023-03-15T00:57:45;101246.09;;;2.34;87.45
71966;BME280;59836;52.132;5.442;2023-03-15T01:00:20;101253.91;;;2.29;87.82
71966;BME280;59836;52.132;5.442;2023-03-15T01:02:51;101245.25;;;2.34;87.77
71966;BME280;59836;52.132;5.442;2023-03-15T01:05:18;101253.91;;;2.29;87.50
71966;BME280;59836;52.132;5.442;2023-03-15T01:07:44;101262.53;;;2.25;87.80
71966;BME280;59836;52.132;5.442;2023-03-15T01:10:12;101263.78;;;2.22;87.90
71966;BME280;59836;52.132;5.442;2023-03-15T01:12:39;101266.25;;;2.17;87.85
71966;BME280;59836;52.132;5.442;2023-03-15T01:15:07;101271.16;;;2.13;87.75
71966;BME280;59836;52.132;5.442;2023-03-15T01:17:33;101274.88;;;2.19;87.97
71966;BME280;59836;52.132;5.442;2023-03-15T01:20:00;101278.19;;;2.21;88.04
71966;BME280;59836;52.132;5.442;2023-03-15T01:22:26;101272.44;;;2.24;88.16
71966;BME280;59836;52.132;5.442;2023-03-15T01:24:52;101273.25;;;2.18;88.16
71966;BME280;59836;52.132;5.442;2023-03-15T01:27:19;101277.97;;;2.16;88.43
71966;BME280;59836;52.132;5.442;2023-03-15T01:29:45;101276.31;;;2.15;88.06
71966;BME280;59836;52.132;5.442;2023-03-15T01:32:12;101286.41;;;2.13;88.09
71966;BME280;59836;52.132;5.442;2023-03-15T01:34:38;101286.41;;;2.13;88.12
71966;BME280;59836;52.132;5.442;2023-03-15T01:37:05;101297.91;;;2.13;88.22
71966;BME280;59836;52.132;5.442;2023-03-15T01:39:31;101298.75;;;2.14;88.92
71966;BME280;59836;52.132;5.442;2023-03-15T01:41:57;101296.28;;;2.19;88.62
71966;BME280;59836;52.132;5.442;2023-03-15T01:44:57;101300.81;;;2.18;88.40
71966;BME280;59836;52.132;5.442;2023-03-15T01:47:26;101300.41;;;2.21;88.59
71966;BME280;59836;52.132;5.442;2023-03-15T01:50:06;101304.09;;;2.14;88.56
71966;BME280;59836;52.132;5.442;2023-03-15T01:52:40;101305.13;;;2.13;89.09
71966;BME280;59836;52.132;5.442;2023-03-15T01:55:11;101298.34;;;2.17;88.83
71966;BME280;59836;52.132;5.442;2023-03-15T01:57:44;101317.31;;;2.22;88.75
71966;BME280;59836;52.132;5.442;2023-03-15T02:00:18;101313.78;;;2.21;89.11
71966;BME280;59836;52.132;5.442;2023-03-15T02:02:51;101314.00;;;2.20;88.83
71966;BME280;59836;52.132;5.442;2023-03-15T02:05:22;101317.28;;;2.15;88.96
71966;BME280;59836;52.132;5.442;2023-03-15T02:07:49;101311.72;;;2.17;88.88
71966;BME280;59836;52.132;5.442;2023-03-15T02:10:25;101318.50;;;2.13;88.65
71966;BME280;59836;52.132;5.442;2023-03-15T02:12:54;101329.63;;;2.16;89.25
71966;BME280;59836;52.132;5.442;2023-03-15T02:15:20;101318.09;;;2.16;89.60
71966;BME280;59836;52.132;5.442;2023-03-15T02:17:47;101320.78;;;2.16;89.22
71966;BME280;59836;52.132;5.442;2023-03-15T02:20:34;101323.47;;;2.16;89.19
71966;BME280;59836;52.132;5.442;2023-03-15T02:23:07;101333.75;;;2.19;89.12
71966;BME280;59836;52.132;5.442;2023-03-15T02:25:39;101331.09;;;2.19;88.88
71966;BME280;59836;52.132;5.442;2023-03-15T02:28:09;101338.88;;;2.14;88.61
71966;BME280;59836;52.132;5.442;2023-03-15T02:30:37;101334.97;;;2.10;88.88
71966;BME280;59836;52.132;5.442;2023-03-15T02:33:07;101335.38;;;2.06;88.96
71966;BME280;59836;52.132;5.442;2023-03-15T02:35:37;101341.34;;;2.09;88.82
71966;BME280;59836;52.132;5.442;2023-03-15T02:38:04;101341.97;;;2.11;89.08
71966;BME280;59836;52.132;5.442;2023-03-15T02:40:30;101352.66;;;2.11;89.09
71966;BME280;59836;52.132;5.442;2023-03-15T02:42:59;101353.47;;;2.04;88.96
71966;BME280;59836;52.132;5.442;2023-03-15T02:45:29;101356.31;;;1.96;88.61
71966;BME280;59836;52.132;5.442;2023-03-15T02:47:58;101355.50;;;1.96;88.72
71966;BME280;59836;52.132;5.442;2023-03-15T02:50:25;101363.31;;;1.97;89.04
71966;BME280;59836;52.132;5.442;2023-03-15T02:52:51;101364.31;;;1.89;89.00
71966;BME280;59836;52.132;5.442;2023-03-15T02:55:18;101371.50;;;1.89;89.29
71966;BME280;59836;52.132;5.442;2023-03-15T02:57:44;101374.19;;;1.89;88.82
71966;BME280;59836;52.132;5.442;2023-03-15T03:00:11;101385.50;;;1.84;89.17
71966;BME280;59836;52.132;5.442;2023-03-15T03:02:45;101388.97;;;1.85;89.33
71966;BME280;59836;52.132;5.442;2023-03-15T03:05:13;101394.72;;;1.82;89.33
71966;BME280;59836;52.132;5.442;2023-03-15T03:07:40;101404.00;;;1.86;89.01
71966;BME280;59836;52.132;5.442;2023-03-15T03:10:15;101393.69;;;1.83;88.85
71966;BME280;59836;52.132;5.442;2023-03-15T03:12:41;101404.78;;;1.80;89.06
71966;BME280;59836;52.132;5.442;2023-03-15T03:15:09;101415.69;;;1.78;89.46
71966;BME280;59836;52.132;5.442;2023-03-15T03:17:35;101419.63;;;1.82;89.17
71966;BME280;59836;52.132;5.442;2023-03-15T03:20:05;101420.44;;;1.83;89.51
71966;BME280;59836;52.132;5.442;2023-03-15T03:22:36;101423.75;;;1.85;89.65
71966;BME280;59836;52.132;5.442;2023-03-15T03:25:03;101424.59;;;1.85;89.44
71966;BME280;59836;52.132;5.442;2023-03-15T03:27:30;101430.50;;;1.81;89.73
71966;BME280;59836;52.132;5.442;2023-03-15T03:29:57;101434.19;;;1.80;89.43
71966;BME280;59836;52.132;5.442;2023-03-15T03:32:24;101443.25;;;1.79;89.30
71966;BME280;59836;52.132;5.442;2023-03-15T03:34:50;101444.91;;;1.80;89.69
71966;BME280;59836;52.132;5.442;2023-03-15T03:37:18;101449.44;;;1.79;89.70
71966;BME280;59836;52.132;5.442;2023-03-15T03:39:45;101445.28;;;1.76;89.47
71966;BME280;59836;52.132;5.442;2023-03-15T03:42:12;101445.28;;;1.76;89.63
71966;BME280;59836;52.132;5.442;2023-03-15T03:44:40;101452.91;;;1.80;89.65
71966;BME280;59836;52.132;5.442;2023-03-15T03:47:06;101466.94;;;1.82;89.52
71966;BME280;59836;52.132;5.442;2023-03-15T03:49:33;101468.59;;;1.83;89.45
71966;BME280;59836;52.132;5.442;2023-03-15T03:51:59;101471.88;;;1.85;89.05
71966;BME280;59836;52.132;5.442;2023-03-15T03:54:27;101464.88;;;1.84;89.27
71966;BME280;59836;52.132;5.442;2023-03-15T03:56:53;101468.41;;;1.84;88.83
71966;BME280;59836;52.132;5.442;2023-03-15T03:59:20;101475.59;;;1.84;89.13
71966;BME280;59836;52.132;5.442;2023-03-15T04:01:46;101474.56;;;1.85;89.03
71966;BME280;59836;52.132;5.442;2023-03-15T04:04:13;101480.94;;;1.84;88.73
71966;BME280;59836;52.132;5.442;2023-03-15T04:06:40;101479.91;;;1.85;89.11
71966;BME280;59836;52.132;5.442;2023-03-15T04:09:12;101485.47;;;1.83;88.75
71966;BME280;59836;52.132;5.442;2023-03-15T04:11:42;101486.66;;;1.81;89.25
71966;BME280;59836;52.132;5.442;2023-03-15T04:14:10;101487.06;;;1.77;89.33
71966;BME280;59836;52.132;5.442;2023-03-15T04:16:36;101498.78;;;1.76;88.94
71966;BME280;59836;52.132;5.442;2023-03-15T04:19:03;101498.16;;;1.74;88.99
71966;BME280;59836;52.132;5.442;2023-03-15T04:21:30;101510.88;;;1.72;89.49
71966;BME280;59836;52.132;5.442;2023-03-15T04:23:58;101505.75;;;1.71;89.43
71966;BME280;59836;52.132;5.442;2023-03-15T04:26:25;101504.72;;;1.72;89.07
71966;BME280;59836;52.132;5.442;2023-03-15T04:28:53;101514.56;;;1.71;89.05
71966;BME280;59836;52.132;5.442;2023-03-15T04:31:20;101511.91;;;1.71;88.80
71966;BME280;59836;52.132;5.442;2023-03-15T04:33:47;101520.94;;;1.70;89.35
71966;BME280;59836;52.132;5.442;2023-03-15T04:36:13;101518.09;;;1.72;88.89
71966;BME280;59836;52.132;5.442;2023-03-15T04:38:44;101529.34;;;1.67;89.04
71966;BME280;59836;52.132;5.442;2023-03-15T04:41:14;101528.16;;;1.70;88.99
71966;BME280;59836;52.132;5.442;2023-03-15T04:43:42;101535.97;;;1.71;89.20
71966;BME280;59836;52.132;5.442;2023-03-15T04:46:08;101535.97;;;1.71;88.62
71966;BME280;59836;52.132;5.442;2023-03-15T04:48:36;101539.66;;;1.70;89.05
71966;BME280;59836;52.132;5.442;2023-03-15T04:51:02;101539.66;;;1.70;88.95
71966;BME280;59836;52.132;5.442;2023-03-15T04:53:28;101539.41;;;1.65;88.97
71966;BME280;59836;52.132;5.442;2023-03-15T04:55:55;101545.41;;;1.67;89.34
71966;BME280;59836;52.132;5.442;2023-03-15T04:58:21;101546.41;;;1.66;89.21
71966;BME280;59836;52.132;5.442;2023-03-15T05:00:48;101554.38;;;1.59;89.24
71966;BME280;59836;52.132;5.442;2023-03-15T05:03:14;101555.19;;;1.60;89.32
71966;BME280;59836;52.132;5.442;2023-03-15T05:05:40;101556.81;;;1.54;89.16
71966;BME280;59836;52.132;5.442;2023-03-15T05:08:07;101561.34;;;1.54;89.63
71966;BME280;59836;52.132;5.442;2023-03-15T05:10:33;101570.19;;;1.54;89.61
71966;BME280;59836;52.132;5.442;2023-03-15T05:13:00;101575.53;;;1.54;89.46
71966;BME280;59836;52.132;5.442;2023-03-15T05:15:26;101582.72;;;1.54;89.42
71966;BME280;59836;52.132;5.442;2023-03-15T05:17:53;101576.09;;;1.50;89.24
71966;BME280;59836;52.132;5.442;2023-03-15T05:20:21;101586.59;;;1.51;89.32
71966;BME280;59836;52.132;5.442;2023-03-15T05:22:47;101585.16;;;1.49;89.40
71966;BME280;59836;52.132;5.442;2023-03-15T05:25:14;101592.16;;;1.50;89.58
71966;BME280;59836;52.132;5.442;2023-03-15T05:27:40;101599.31;;;1.49;89.88
71966;BME280;59836;52.132;5.442;2023-03-15T05:30:07;101610.84;;;1.50;89.83
71966;BME280;59836;52.132;5.442;2023-03-15T05:32:34;101618.50;;;1.53;90.06
71966;BME280;59836;52.132;5.442;2023-03-15T05:35:03;101616.59;;;1.46;90.20
71966;BME280;59836;52.132;5.442;2023-03-15T05:37:30;101617.22;;;1.49;90.11
71966;BME280;59836;52.132;5.442;2023-03-15T05:39:58;101621.94;;;1.46;89.94
71966;BME280;59836;52.132;5.442;2023-03-15T05:42:25;101620.00;;;1.40;89.78
71966;BME280;59836;52.132;5.442;2023-03-15T05:44:52;101621.66;;;1.41;90.10
71966;BME280;59836;52.132;5.442;2023-03-15T05:47:19;101630.69;;;1.40;89.64
71966;BME280;59836;52.132;5.442;2023-03-15T05:49:46;101618.72;;;1.36;90.01
71966;BME280;59836;52.132;5.442;2023-03-15T05:52:12;101633.75;;;1.37;89.77
71966;BME280;59836;52.132;5.442;2023-03-15T05:54:38;101622.03;;;1.38;89.56
71966;BME280;59836;52.132;5.442;2023-03-15T05:57:07;101634.78;;;1.36;89.50
71966;BME280;59836;52.132;5.442;2023-03-15T05:59:33;101639.22;;;1.29;89.73
71966;BME280;59836;52.132;5.442;2023-03-15T06:02:00;101645.94;;;1.25;90.25
71966;BME280;59836;52.132;5.442;2023-03-15T06:04:26;101654.88;;;1.32;90.03
71966;BME280;59836;52.132;5.442;2023-03-15T06:06:53;101663.91;;;1.31;90.27
71966;BME280;59836;52.132;5.442;2023-03-15T06:09:19;101670.69;;;1.33;90.20
71966;BME280;59836;52.132;5.442;2023-03-15T06:11:45;101674.22;;;1.34;90.05
71966;BME280;59836;52.132;5.442;2023-03-15T06:14:12;101678.56;;;1.35;89.78
71966;BME280;59836;52.132;5.442;2023-03-15T06:16:38;101684.25;;;1.32;89.71
71966;BME280;59836;52.132;5.442;2023-03-15T06:19:05;101686.56;;;1.35;89.79
71966;BME280;59836;52.132;5.442;2023-03-15T06:21:31;101692.66;;;1.29;89.91
71966;BME280;59836;52.132;5.442;2023-03-15T06:23:57;101694.31;;;1.30;89.95
71966;BME280;59836;52.132;5.442;2023-03-15T06:26:24;101693.94;;;1.33;89.97
71966;BME280;59836;52.132;5.442;2023-03-15T06:28:50;101698.91;;;1.36;90.30
71966;BME280;59836;52.132;5.442;2023-03-15T06:31:17;101694.22;;;1.38;90.54
71966;BME280;59836;52.132;5.442;2023-03-15T06:33:43;101695.66;;;1.41;90.30
71966;BME280;59836;52.132;5.442;2023-03-15T06:36:10;101712.53;;;1.41;90.57
71966;BME280;59836;52.132;5.442;2023-03-15T06:38:36;101717.53;;;1.44;90.44
71966;BME280;59836;52.132;5.442;2023-03-15T06:41:03;101725.16;;;1.47;90.54
71966;BME280;59836;52.132;5.442;2023-03-15T06:43:30;101729.13;;;1.52;90.15
71966;BME280;59836;52.132;5.442;2023-03-15T06:45:57;101719.72;;;1.56;90.43
71966;BME280;59836;52.132;5.442;2023-03-15T06:48:26;101729.00;;;1.60;90.25
71966;BME280;59836;52.132;5.442;2023-03-15T06:50:53;101735.63;;;1.64;90.31
71966;BME280;59836;52.132;5.442;2023-03-15T06:53:20;101733.78;;;1.65;90.20
71966;BME280;59836;52.132;5.442;2023-03-15T06:55:46;101738.00;;;1.74;90.28
71966;BME280;59836;52.132;5.442;2023-03-15T06:58:13;101740.09;;;1.79;90.20
71966;BME280;59836;52.132;5.442;2023-03-15T07:00:39;101742.22;;;1.83;90.34
71966;BME280;59836;52.132;5.442;2023-03-15T07:03:06;101740.25;;;1.92;90.66
71966;BME280;59836;52.132;5.442;2023-03-15T07:05:32;101748.16;;;2.00;90.57
71966;BME280;59836;52.132;5.442;2023-03-15T07:07:59;101751.94;;;2.06;90.23
71966;BME280;59836;52.132;5.442;2023-03-15T07:10:25;101766.78;;;2.09;89.94
71966;BME280;59836;52.132;5.442;2023-03-15T07:13:02;101776.72;;;2.15;90.07
71966;BME280;59836;52.132;5.442;2023-03-15T07:15:52;101775.97;;;2.21;90.04
71966;BME280;59836;52.132;5.442;2023-03-15T07:18:28;101773.53;;;2.26;90.33
71966;BME280;59836;52.132;5.442;2023-03-15T07:20:55;101770.38;;;2.38;90.43
71966;BME280;59836;52.132;5.442;2023-03-15T07:23:26;101769.22;;;2.47;90.00
71966;BME280;59836;52.132;5.442;2023-03-15T07:25:53;101771.38;;;2.58;89.89
71966;BME280;59836;52.132;5.442;2023-03-15T07:28:22;101779.66;;;2.63;89.44
71966;BME280;59836;52.132;5.442;2023-03-15T07:31:00;101781.53;;;2.70;89.55
71966;BME280;59836;52.132;5.442;2023-03-15T07:33:31;101785.72;;;2.79;89.66
71966;BME280;59836;52.132;5.442;2023-03-15T07:35:58;101789.75;;;2.90;89.37
71966;BME280;59836;52.132;5.442;2023-03-15T07:38:26;101793.94;;;2.99;89.13
71966;BME280;59836;52.132;5.442;2023-03-15T07:40:54;101802.66;;;3.08;89.40
71966;BME280;59836;52.132;5.442;2023-03-15T07:43:22;101799.03;;;3.22;89.32
71966;BME280;59836;52.132;5.442;2023-03-15T07:45:49;101806.13;;;3.37;88.50
71966;BME280;59836;52.132;5.442;2023-03-15T07:48:16;101808.91;;;3.50;88.28
71966;BME280;59836;52.132;5.442;2023-03-15T07:50:49;101807.94;;;3.65;87.62
71966;BME280;59836;52.132;5.442;2023-03-15T07:53:16;101801.34;;;3.74;87.74
71966;BME280;59836;52.132;5.442;2023-03-15T07:55:42;101813.16;;;3.87;87.58
71966;BME280;59836;52.132;5.442;2023-03-15T07:58:10;101819.03;;;4.04;87.38
71966;BME280;59836;52.132;5.442;2023-03-15T08:00:36;101818.44;;;4.22;87.08
71966;BME280;59836;52.132;5.442;2023-03-15T08:03:20;101828.41;;;4.41;86.84
71966;BME280;59836;52.132;5.442;2023-03-15T08:06:01;101826.59;;;4.62;86.55
71966;BME280;59836;52.132;5.442;2023-03-15T08:08:28;101832.59;;;4.71;85.45
71966;BME280;59836;52.132;5.442;2023-03-15T08:10:54;101837.94;;;4.78;85.93
71966;BME280;59836;52.132;5.442;2023-03-15T08:13:50;101842.91;;;4.94;85.48
71966;BME280;59836;52.132;5.442;2023-03-15T08:16:16;101845.63;;;5.01;84.85
71966;BME280;59836;52.132;5.442;2023-03-15T08:18:55;101846.03;;;5.05;83.92
71966;BME280;59836;52.132;5.442;2023-03-15T08:21:34;101849.13;;;5.15;83.96
71966;BME280;59836;52.132;5.442;2023-03-15T08:24:00;101848.06;;;5.29;84.94
71966;BME280;59836;52.132;5.442;2023-03-15T08:26:27;101849.91;;;5.42;83.99
71966;BME280;59836;52.132;5.442;2023-03-15T08:28:53;101846.19;;;5.50;82.86
71966;BME280;59836;52.132;5.442;2023-03-15T08:31:33;101854.03;;;5.58;82.70
71966;BME280;59836;52.132;5.442;2023-03-15T08:34:15;101861.66;;;5.75;82.09
71966;BME280;59836;52.132;5.442;2023-03-15T08:36:41;101856.41;;;5.87;81.91
71966;BME280;59836;52.132;5.442;2023-03-15T08:39:08;101862.19;;;5.97;82.26
71966;BME280;59836;52.132;5.442;2023-03-15T08:44:32;101874.13;;;6.22;81.04
71966;BME280;59836;52.132;5.442;2023-03-15T08:47:18;101876.56;;;6.30;80.85
71966;BME280;59836;52.132;5.442;2023-03-15T08:49:49;101874.00;;;6.42;80.12
71966;BME280;59836;52.132;5.442;2023-03-15T08:52:19;101878.53;;;6.48;79.94
71966;BME280;59836;52.132;5.442;2023-03-15T08:54:51;101887.63;;;6.54;79.06
71966;BME280;59836;52.132;5.442;2023-03-15T08:57:18;101883.03;;;6.61;79.19
71966;BME280;59836;52.132;5.442;2023-03-15T09:00:04;101884.25;;;6.65;79.35
71966;BME280;59836;52.132;5.442;2023-03-15T09:02:35;101881.97;;;6.62;79.33
71966;BME280;59836;52.132;5.442;2023-03-15T09:05:03;101881.28;;;6.73;80.18
71966;BME280;59836;52.132;5.442;2023-03-15T09:07:33;101883.31;;;6.78;79.03
71966;BME280;59836;52.132;5.442;2023-03-15T09:10:06;101881.19;;;6.87;78.45
71966;BME280;59836;52.132;5.442;2023-03-15T09:12:33;101883.59;;;6.95;78.59
71966;BME280;59836;52.132;5.442;2023-03-15T09:14:59;101883.50;;;7.08;77.91
71966;BME280;59836;52.132;5.442;2023-03-15T09:17:30;101892.59;;;7.14;76.84
71966;BME280;59836;52.132;5.442;2023-03-15T09:20:06;101892.53;;;7.21;77.10
71966;BME280;59836;52.132;5.442;2023-03-15T09:22:55;101883.78;;;7.26;76.71
71966;BME280;59836;52.132;5.442;2023-03-15T09:25:33;101881.63;;;7.34;75.82
71966;BME280;59836;52.132;5.442;2023-03-15T09:28:03;101869.94;;;7.41;74.03
71966;BME280;59836;52.132;5.442;2023-03-15T09:30:29;101877.59;;;7.44;74.19
71966;BME280;59836;52.132;5.442;2023-03-15T09:33:02;101879.16;;;7.51;73.40
71966;BME280;59836;52.132;5.442;2023-03-15T09:35:29;101881.38;;;7.61;74.34
71966;BME280;59836;52.132;5.442;2023-03-15T09:37:56;101887.28;;;7.70;73.75
71966;BME280;59836;52.132;5.442;2023-03-15T09:40:55;101881.28;;;7.68;72.02
71966;BME280;59836;52.132;5.442;2023-03-15T09:43:53;101880.03;;;7.71;72.29
71966;BME280;59836;52.132;5.442;2023-03-15T09:46:36;101889.09;;;7.76;71.47
71966;BME280;59836;52.132;5.442;2023-03-15T09:49:19;101894.88;;;7.80;71.17
71966;BME280;59836;52.132;5.442;2023-03-15T09:51:57;101897.72;;;7.85;71.92
71966;BME280;59836;52.132;5.442;2023-03-15T09:54:46;101894.94;;;7.92;70.37
71966;BME280;59836;52.132;5.442;2023-03-15T09:57:22;101893.28;;;7.91;67.69
71966;BME280;59836;52.132;5.442;2023-03-15T09:59:51;101897.44;;;7.93;67.22
71966;BME280;59836;52.132;5.442;2023-03-15T10:02:26;101895.53;;;7.94;67.29
71966;BME280;59836;52.132;5.442;2023-03-15T10:05:00;101890.59;;;7.91;67.10
71966;BME280;59836;52.132;5.442;2023-03-15T10:07:29;101895.44;;;8.01;68.21
71966;BME280;59836;52.132;5.442;2023-03-15T10:09:56;101894.09;;;8.10;67.41
71966;BME280;59836;52.132;5.442;2023-03-15T10:12:28;101880.81;;;8.08;66.54
71966;BME280;59836;52.132;5.442;2023-03-15T10:18:32;101888.22;;;8.13;66.92
71966;BME280;59836;52.132;5.442;2023-03-15T10:24:19;101878.47;;;8.12;63.24
71966;BME280;59836;52.132;5.442;2023-03-15T10:26:50;101878.63;;;8.17;61.46
71966;BME280;59836;52.132;5.442;2023-03-15T10:29:19;101878.75;;;8.22;61.60
71966;BME280;59836;52.132;5.442;2023-03-15T10:31:46;101872.00;;;8.32;61.60
71966;BME280;59836;52.132;5.442;2023-03-15T10:34:14;101883.09;;;8.42;61.51
71966;BME280;59836;52.132;5.442;2023-03-15T10:36:46;101886.16;;;8.46;62.79
71966;BME280;59836;52.132;5.442;2023-03-15T10:39:14;101884.97;;;8.41;61.33
71966;BME280;59836;52.132;5.442;2023-03-15T10:41:43;101896.59;;;8.42;61.23
71966;BME280;59836;52.132;5.442;2023-03-15T10:44:22;101899.00;;;8.50;61.53
71966;BME280;59836;52.132;5.442;2023-03-15T10:47:22;101893.59;;;8.50;59.49
71966;BME280;59836;52.132;5.442;2023-03-15T10:49:55;101908.31;;;8.54;58.59
71966;BME280;59836;52.132;5.442;2023-03-15T10:52:39;101912.94;;;8.66;59.86
71966;BME280;59836;52.132;5.442;2023-03-15T10:55:13;101916.38;;;8.73;59.50
71966;BME280;59836;52.132;5.442;2023-03-15T10:57:51;101922.13;;;8.65;59.23
71966;BME280;59836;52.132;5.442;2023-03-15T11:00:35;101925.16;;;8.68;58.92
71966;BME280;59836;52.132;5.442;2023-03-15T11:03:05;101931.16;;;8.70;61.95
71966;BME280;59836;52.132;5.442;2023-03-15T11:05:40;101932.75;;;8.78;62.13
71966;BME280;59836;52.132;5.442;2023-03-15T11:08:12;101933.69;;;8.84;59.93
71966;BME280;59836;52.132;5.442;2023-03-15T11:10:39;101941.25;;;8.94;60.45
71966;BME280;59836;52.132;5.442;2023-03-15T11:13:12;101938.69;;;8.99;57.38
71966;BME280;59836;52.132;5.442;2023-03-15T11:15:47;101955.03;;;9.04;58.31
71966;BME280;59836;52.132;5.442;2023-03-15T11:18:23;101950.47;;;9.16;59.65
71966;BME280;59836;52.132;5.442;2023-03-15T11:20:51;101951.56;;;9.27;57.62
71966;BME280;59836;52.132;5.442;2023-03-15T11:23:28;101953.56;;;9.32;56.75
71966;BME280;59836;52.132;5.442;2023-03-15T11:25:57;101956.38;;;9.37;56.10
71966;BME280;59836;52.132;5.442;2023-03-15T11:28:29;101959.91;;;9.26;55.31
71966;BME280;59836;52.132;5.442;2023-03-15T11:30:57;101953.28;;;9.22;54.95
71966;BME280;59836;52.132;5.442;2023-03-15T11:33:47;101950.38;;;9.23;56.07
71966;BME280;59836;52.132;5.442;2023-03-15T11:36:19;101952.63;;;9.38;55.27
71966;BME280;59836;52.132;5.442;2023-03-15T11:38:48;101948.50;;;9.48;56.23
71966;BME280;59836;52.132;5.442;2023-03-15T11:41:39;101950.41;;;9.59;57.01
71966;BME280;59836;52.132;5.442;2023-03-15T11:44:28;101948.28;;;9.61;55.68
71966;BME280;59836;52.132;5.442;2023-03-15T11:47:03;101945.09;;;9.64;55.26
71966;BME280;59836;52.132;5.442;2023-03-15T11:49:44;101937.56;;;9.66;55.89
71966;BME280;59836;52.132;5.442;2023-03-15T11:52:15;101931.91;;;9.56;53.92
71966;BME280;59836;52.132;5.442;2023-03-15T11:54:43;101938.13;;;9.56;54.76
71966;BME280;59836;52.132;5.442;2023-03-15T11:57:39;101925.88;;;9.66;55.82
71966;BME280;59836;52.132;5.442;2023-03-15T12:02:54;101935.91;;;9.89;52.92
71966;BME280;59836;52.132;5.442;2023-03-15T12:11:00;101929.31;;;9.85;51.41
71966;BME280;59836;52.132;5.442;2023-03-15T12:13:30;101929.31;;;9.85;51.17
71966;BME280;59836;52.132;5.442;2023-03-15T12:15:57;101939.19;;;9.91;51.28
71966;BME280;59836;52.132;5.442;2023-03-15T12:18:28;101923.63;;;9.98;51.46
71966;BME280;59836;52.132;5.442;2023-03-15T12:21:32;101934.22;;;10.00;51.11
71966;BME280;59836;52.132;5.442;2023-03-15T12:24:13;101938.09;;;10.04;50.09
71966;BME280;59836;52.132;5.442;2023-03-15T12:26:43;101942.81;;;9.97;49.74
71966;BME280;59836;52.132;5.442;2023-03-15T12:34:49;101942.13;;;10.01;52.09
71966;BME280;59836;52.132;5.442;2023-03-15T12:37:20;101946.97;;;9.99;49.82
71966;BME280;59836;52.132;5.442;2023-03-15T12:39:50;101938.09;;;10.04;48.86
71966;BME280;59836;52.132;5.442;2023-03-15T12:51:01;101934.06;;;10.18;48.00
71966;BME280;59836;52.132;5.442;2023-03-15T12:56:24;101938.16;;;10.21;48.06
71966;BME280;59836;52.132;5.442;2023-03-15T12:58:54;101930.97;;;10.27;47.32
71966;BME280;59836;52.132;5.442;2023-03-15T13:01:23;101937.56;;;10.31;46.71
71966;BME280;59836;52.132;5.442;2023-03-15T13:03:54;101939.31;;;10.37;48.07
71966;BME280;59836;52.132;5.442;2023-03-15T13:06:51;101935.91;;;10.42;47.51
71966;BME280;59836;52.132;5.442;2023-03-15T13:12:13;101936.97;;;10.41;45.42
71966;BME280;59836;52.132;5.442;2023-03-15T13:14:51;101924.91;;;10.48;47.42
71966;BME280;59836;52.132;5.442;2023-03-15T13:17:49;101935.03;;;10.53;49.07
71966;BME280;59836;52.132;5.442;2023-03-15T13:23:17;101925.63;;;10.44;47.36
71966;BME280;59836;52.132;5.442;2023-03-15T13:25:53;101930.94;;;10.51;49.02
71966;BME280;59836;52.132;5.442;2023-03-15T13:28:26;101924.38;;;10.63;50.94
71966;BME280;59836;52.132;5.442;2023-03-15T13:31:20;101921.88;;;10.62;49.15
71966;BME280;59836;52.132;5.442;2023-03-15T13:33:48;101928.78;;;10.53;49.16
71966;BME280;59836;52.132;5.442;2023-03-15T13:36:17;101929.09;;;10.39;47.66
71966;BME280;59836;52.132;5.442;2023-03-15T13:38:54;101926.31;;;10.51;48.74
71966;BME280;59836;52.132;5.442;2023-03-15T13:41:23;101930.28;;;10.60;48.89
71966;BME280;59836;52.132;5.442;2023-03-15T13:43:52;101928.19;;;10.80;48.17
71966;BME280;59836;52.132;5.442;2023-03-15T13:46:21;101937.34;;;10.61;46.91
71966;BME280;59836;52.132;5.442;2023-03-15T13:48:49;101937.34;;;10.61;47.75
71966;BME280;59836;52.132;5.442;2023-03-15T13:54:25;101936.88;;;10.65;48.26
71966;BME280;59836;52.132;5.442;2023-03-15T13:57:28;101940.75;;;10.40;47.34
71966;BME280;59836;52.132;5.442;2023-03-15T13:59:58;101951.03;;;10.26;47.04
71966;BME280;59836;52.132;5.442;2023-03-15T14:02:37;101946.41;;;10.26;46.75